Time;durP1;ratioP1;P1;durP2;ratioP2;P2;SDS_P1;SDS_P2;PMS_P1;PMS_P2;Temp;Humidity;BMP_temperature;BMP_pressure;BME280_temperature;BME280_humidity;BME280_pressure;Samples;Min_cycle;Max_cycle;Signal;HPM_P1;HPM_P2
2021/08/11 00:02:05;;;;;;;0.87;0.30;;;18.40;99.90;;;;;;5076839;28;20255;-87
2021/08/11 00:04:30;;;;;;;0.30;0.30;;;18.10;99.90;;;;;;5076835;28;20191;-87
2021/08/11 00:06:56;;;;;;;1.07;0.63;;;17.50;99.90;;;;;;5076923;28;20181;-88
2021/08/11 00:09:21;;;;;;;0.20;0.20;;;17.20;99.90;;;;;;5076973;28;20307;-87
2021/08/11 00:11:47;;;;;;;0.27;0.27;;;17.20;99.90;;;;;;5076760;28;20181;-87
2021/08/11 00:14:17;;;;;;;0.10;0.10;;;17.20;99.90;;;;;;5073338;28;20735;-87
2021/08/11 00:16:42;;;;;;;0.40;0.40;;;17.30;99.90;;;;;;5089319;28;20188;-86
2021/08/11 00:19:08;;;;;;;0.40;0.40;;;17.40;99.90;;;;;;5087387;28;20587;-87
2021/08/11 00:21:33;;;;;;;0.17;0.17;;;17.50;99.90;;;;;;5076105;28;20196;-87
2021/08/11 00:23:59;;;;;;;1.47;0.40;;;17.50;99.90;;;;;;5076834;28;20188;-87
2021/08/11 00:26:24;;;;;;;0.23;0.23;;;17.50;99.90;;;;;;5076833;28;20223;-87
2021/08/11 00:28:50;;;;;;;0.30;0.30;;;17.50;99.90;;;;;;5094236;28;20184;-87
2021/08/11 00:31:16;;;;;;;0.10;0.10;;;17.60;99.90;;;;;;5094591;28;20369;-87
2021/08/11 00:33:41;;;;;;;0.37;0.37;;;17.60;99.90;;;;;;5073806;28;20204;-87
2021/08/11 00:36:07;;;;;;;0.20;0.20;;;17.50;99.90;;;;;;5071643;28;20196;-87
2021/08/11 00:38:32;;;;;;;0.40;0.40;;;17.50;99.90;;;;;;5073318;28;20187;-87
2021/08/11 00:40:58;;;;;;;0.40;0.37;;;17.40;99.90;;;;;;5078076;28;20222;-87
2021/08/11 00:43:23;;;;;;;1.17;0.57;;;17.30;99.90;;;;;;5076591;28;20212;-87
2021/08/11 00:45:49;;;;;;;0.27;0.27;;;17.20;99.90;;;;;;5073079;28;20230;-87
2021/08/11 00:48:15;;;;;;;0.50;0.50;;;17.20;99.90;;;;;;5068531;28;20192;-87
2021/08/11 00:50:41;;;;;;;0.93;0.23;;;17.30;99.90;;;;;;5076656;28;20193;-87
2021/08/11 00:53:16;;;;;;;7.53;0.40;;;17.40;99.90;;;;;;5094002;28;20210;-87
2021/08/11 00:55:42;;;;;;;0.17;0.17;;;17.40;99.90;;;;;;5076203;28;20183;-84
2021/08/11 00:58:12;;;;;;;0.10;0.10;;;17.50;99.90;;;;;;5088287;28;20671;-84
2021/08/11 01:00:48;;;;;;;0.27;0.27;;;17.50;99.90;;;;;;5062792;28;20223;-84
2021/08/11 01:03:19;;;;;;;0.27;0.27;;;17.60;99.90;;;;;;5074300;28;20197;-85
2021/08/11 01:05:46;;;;;;;0.53;0.20;;;17.60;99.90;;;;;;5093998;28;20202;-84
2021/08/11 01:08:12;;;;;;;0.20;0.20;;;17.60;99.90;;;;;;5074682;28;20188;-84
2021/08/11 01:10:41;;;;;;;0.43;0.33;;;17.60;99.90;;;;;;5075758;28;20203;-84
2021/08/11 01:13:09;;;;;;;2.27;1.00;;;17.60;99.90;;;;;;5074536;28;20200;-84
2021/08/11 01:15:36;;;;;;;0.30;0.30;;;17.60;99.90;;;;;;5075004;28;20191;-84
2021/08/11 01:18:02;;;;;;;0.30;0.30;;;17.50;99.90;;;;;;5075004;28;20314;-84
2021/08/11 01:20:30;;;;;;;0.67;0.30;;;17.40;99.90;;;;;;5064674;28;20214;-84
2021/08/11 01:23:14;;;;;;;0.53;0.40;;;17.30;99.90;;;;;;5069757;28;20297;-84
2021/08/11 01:25:46;;;;;;;0.30;0.30;;;17.30;99.90;;;;;;5084295;28;20176;-84
2021/08/11 01:28:42;;;;;;;0.40;0.27;;;17.20;99.90;;;;;;5091516;28;20184;-84
2021/08/11 01:31:11;;;;;;;0.50;0.50;;;17.00;99.90;;;;;;5087106;28;20183;-84
2021/08/11 01:34:01;;;;;;;0.30;0.30;;;16.80;99.90;;;;;;5071906;28;20988;-85
2021/08/11 01:36:45;;;;;;;1.00;0.33;;;16.60;99.90;;;;;;5093107;28;20183;-85
2021/08/11 01:39:35;;;;;;;1.97;0.97;;;16.40;99.90;;;;;;5089949;28;20834;-84
2021/08/11 01:42:29;;;;;;;0.67;0.37;;;16.20;99.90;;;;;;5076552;28;20690;-84
2021/08/11 01:45:16;;;;;;;0.20;0.20;;;16.10;99.90;;;;;;5075340;28;20207;-85
2021/08/11 01:48:01;;;;;;;0.40;0.40;;;15.90;99.90;;;;;;5074869;28;20180;-84
2021/08/11 01:50:30;;;;;;;0.20;0.20;;;15.80;99.90;;;;;;5092987;28;20209;-84
2021/08/11 01:52:56;;;;;;;0.40;0.40;;;15.80;99.90;;;;;;5064588;28;20257;-85
2021/08/11 01:55:22;;;;;;;0.27;0.27;;;15.80;99.90;;;;;;5076597;28;20853;-84
2021/08/11 01:57:50;;;;;;;0.20;0.20;;;15.70;99.90;;;;;;5065625;28;20273;-84
2021/08/11 02:00:17;;;;;;;3.07;0.63;;;15.70;99.90;;;;;;5084999;28;20182;-85
2021/08/11 02:02:46;;;;;;;0.57;0.20;;;15.70;99.90;;;;;;5089523;28;20254;-84
2021/08/11 02:05:13;;;;;;;1.77;1.67;;;15.80;99.90;;;;;;5074771;28;20525;-85
2021/08/11 02:07:40;;;;;;;0.30;0.30;;;16.00;99.90;;;;;;5074517;28;20244;-84
2021/08/11 02:10:08;;;;;;;0.30;0.30;;;16.20;99.90;;;;;;5074801;28;20182;-84
2021/08/11 02:12:35;;;;;;;0.30;0.30;;;16.30;99.90;;;;;;5089285;28;20208;-84
2021/08/11 02:15:01;;;;;;;0.13;0.13;;;16.30;99.90;;;;;;5092819;28;20236;-84
2021/08/11 02:17:26;;;;;;;0.23;0.10;;;16.30;99.90;;;;;;5069271;28;20195;-84
2021/08/11 02:19:53;;;;;;;0.27;0.20;;;16.10;99.90;;;;;;5090047;28;20743;-85
2021/08/11 02:22:18;;;;;;;1.80;0.53;;;16.00;99.90;;;;;;5081174;22;20598;-83
2021/08/11 02:24:44;;;;;;;0.20;0.20;;;15.90;99.90;;;;;;5049350;28;20212;-83
2021/08/11 02:27:16;;;;;;;0.70;0.50;;;15.70;99.90;;;;;;5049443;28;20178;-81
2021/08/11 02:29:57;;;;;;;1.13;1.13;;;15.70;99.90;;;;;;5031655;28;20818;-83
2021/08/11 02:32:56;;;;;;;0.47;0.47;;;15.60;99.90;;;;;;5034483;28;20585;-81
2021/08/11 02:35:29;;;;;;;0.50;0.50;;;15.60;99.90;;;;;;5010714;28;20186;-82
2021/08/11 02:38:09;;;;;;;0.40;0.40;;;15.60;99.90;;;;;;5013247;28;20220;-83
2021/08/11 02:41:04;;;;;;;0.47;0.47;;;15.50;99.90;;;;;;5012727;28;20204;-83
2021/08/11 02:43:58;;;;;;;0.10;0.10;;;15.60;99.90;;;;;;5021972;28;20785;-85
2021/08/11 02:46:26;;;;;;;0.47;0.40;;;15.80;99.90;;;;;;5004385;28;20210;-86
2021/08/11 02:48:59;;;;;;;0.60;0.60;;;15.90;99.90;;;;;;5013620;28;20190;-82
2021/08/11 02:51:27;;;;;;;0.27;0.27;;;16.10;99.90;;;;;;5012249;28;20242;-83
2021/08/11 02:53:54;;;;;;;1.00;0.40;;;16.30;99.90;;;;;;5012238;28;20181;-83
2021/08/11 02:56:21;;;;;;;0.20;0.20;;;16.40;99.90;;;;;;5029532;28;20201;-83
2021/08/11 02:58:47;;;;;;;0.10;0.10;;;16.40;99.90;;;;;;5013602;28;20178;-83
2021/08/11 03:01:13;;;;;;;0.20;0.20;;;16.40;99.90;;;;;;5012685;28;20217;-83
2021/08/11 03:03:40;;;;;;;0.00;0.00;;;16.50;99.90;;;;;;5031198;28;20216;-82
2021/08/11 03:06:05;;;;;;;0.77;0.20;;;16.50;99.90;;;;;;5012221;28;20186;-82
2021/08/11 03:08:33;;;;;;;0.40;0.40;;;16.50;99.90;;;;;;5031415;28;20193;-82
2021/08/11 03:10:59;;;;;;;0.50;0.50;;;16.40;99.90;;;;;;5030105;28;20284;-82
2021/08/11 03:13:25;;;;;;;0.40;0.40;;;16.20;99.90;;;;;;5029006;28;20189;-81
2021/08/11 03:15:51;;;;;;;0.30;0.23;;;16.20;99.90;;;;;;5021437;28;20196;-83
2021/08/11 03:18:17;;;;;;;1.03;0.50;;;16.10;99.90;;;;;;5027996;28;20189;-80
2021/08/11 03:20:44;;;;;;;0.23;0.23;;;16.20;99.90;;;;;;5029900;28;20197;-82
2021/08/11 03:23:13;;;;;;;0.20;0.20;;;16.20;99.90;;;;;;5009256;28;20220;-82
2021/08/11 03:25:39;;;;;;;0.33;0.33;;;16.30;99.90;;;;;;5019622;28;20649;-82
2021/08/11 03:28:05;;;;;;;0.17;0.13;;;16.50;99.90;;;;;;5012098;28;20186;-82
2021/08/11 03:30:31;;;;;;;0.60;0.60;;;16.50;99.90;;;;;;5030282;28;20190;-83
2021/08/11 03:32:56;;;;;;;0.23;0.23;;;16.30;99.90;;;;;;5014693;28;20186;-83
2021/08/11 03:35:22;;;;;;;0.10;0.10;;;16.20;99.90;;;;;;5026667;28;20182;-80
2021/08/11 03:37:48;;;;;;;0.20;0.20;;;16.20;99.90;;;;;;5012044;28;20190;-83
2021/08/11 03:40:14;;;;;;;0.33;0.33;;;16.10;99.90;;;;;;5024648;28;20679;-81
2021/08/11 03:42:40;;;;;;;1.13;0.33;;;15.90;99.90;;;;;;5024375;28;20213;-82
2021/08/11 03:45:06;;;;;;;0.93;0.40;;;15.80;99.90;;;;;;5011722;28;20662;-82
2021/08/11 03:47:32;;;;;;;0.57;0.43;;;15.60;99.90;;;;;;5008542;28;20193;-82
2021/08/11 03:49:57;;;;;;;0.27;0.27;;;15.60;99.90;;;;;;5012380;28;20189;-83
2021/08/11 03:52:23;;;;;;;0.17;0.17;;;15.70;99.90;;;;;;5011802;28;20197;-83
2021/08/11 03:54:48;;;;;;;0.87;0.10;;;15.90;99.90;;;;;;5014568;28;20209;-83
2021/08/11 03:57:14;;;;;;;0.23;0.23;;;15.90;99.90;;;;;;5032373;28;20197;-82
2021/08/11 03:59:40;;;;;;;6.07;1.20;;;15.90;99.90;;;;;;5016451;28;20197;-83
2021/08/11 04:02:05;;;;;;;0.20;0.20;;;15.70;99.90;;;;;;5032499;28;20224;-83
2021/08/11 04:04:31;;;;;;;0.43;0.43;;;15.70;99.90;;;;;;5014496;28;20642;-83
2021/08/11 04:06:57;;;;;;;0.40;0.40;;;15.70;99.90;;;;;;5013483;28;20670;-82
2021/08/11 04:09:22;;;;;;;0.23;0.23;;;15.80;99.90;;;;;;5014677;28;20224;-82
2021/08/11 04:11:48;;;;;;;0.20;0.20;;;15.70;99.90;;;;;;5030847;28;20216;-83
2021/08/11 04:14:13;;;;;;;0.60;0.60;;;15.60;99.90;;;;;;5013848;28;20201;-83
2021/08/11 04:16:39;;;;;;;0.00;0.00;;;15.40;99.90;;;;;;5031120;28;20193;-82
2021/08/11 04:19:05;;;;;;;0.23;0.23;;;15.30;99.90;;;;;;5032524;28;20271;-82
2021/08/11 04:21:31;;;;;;;0.40;0.20;;;15.40;99.90;;;;;;5031265;28;20636;-81
2021/08/11 04:23:57;;;;;;;0.20;0.20;;;15.40;99.90;;;;;;5014721;28;20188;-83
2021/08/11 04:26:22;;;;;;;0.27;0.27;;;15.60;99.90;;;;;;5014441;28;20188;-82
2021/08/11 04:28:48;;;;;;;0.20;0.20;;;15.70;99.90;;;;;;5015264;28;20574;-82
2021/08/11 04:31:15;;;;;;;0.10;0.10;;;15.70;99.90;;;;;;5015872;28;20202;-83
2021/08/11 04:33:40;;;;;;;0.33;0.33;;;15.90;99.90;;;;;;5018459;28;20573;-82
2021/08/11 04:36:06;;;;;;;0.37;0.37;;;16.00;99.90;;;;;;5012470;28;20185;-82
2021/08/11 04:38:31;;;;;;;0.30;0.17;;;16.10;99.90;;;;;;5015726;28;20673;-83
2021/08/11 04:40:57;;;;;;;0.20;0.20;;;16.20;99.90;;;;;;5029527;28;20728;-83
2021/08/11 04:43:22;;;;;;;0.40;0.40;;;16.30;99.90;;;;;;5013833;28;20292;-82
2021/08/11 04:45:48;;;;;;;0.50;0.50;;;16.40;99.90;;;;;;5031534;28;20198;-82
2021/08/11 04:48:14;;;;;;;0.50;0.50;;;16.50;99.90;;;;;;5015552;28;20182;-82
2021/08/11 04:50:39;;;;;;;0.33;0.33;;;16.40;99.90;;;;;;5031377;28;20181;-83
2021/08/11 04:53:05;;;;;;;0.20;0.20;;;16.50;99.90;;;;;;5014017;28;20234;-83
2021/08/11 04:55:30;;;;;;;0.43;0.30;;;16.60;99.90;;;;;;5028587;28;20193;-82
2021/08/11 04:57:56;;;;;;;0.20;0.20;;;16.70;99.90;;;;;;5006094;28;20332;-80
2021/08/11 05:00:21;;;;;;;1.83;0.20;;;16.80;99.90;;;;;;5013241;28;20346;-83
2021/08/11 05:02:47;;;;;;;1.80;0.50;;;16.90;99.90;;;;;;5015368;28;20283;-84
2021/08/11 05:05:12;;;;;;;0.20;0.20;;;17.00;99.90;;;;;;5013848;28;20676;-82
2021/08/11 05:07:38;;;;;;;0.87;0.33;;;17.00;99.90;;;;;;5008977;28;20587;-81
2021/08/11 05:10:04;;;;;;;0.20;0.20;;;17.00;99.90;;;;;;5026383;28;20193;-82
2021/08/11 05:12:31;;;;;;;0.57;0.30;;;17.10;99.90;;;;;;5028698;28;20583;-82
2021/08/11 05:14:57;;;;;;;0.30;0.30;;;17.20;99.90;;;;;;5012312;28;20182;-85
2021/08/11 05:17:23;;;;;;;0.40;0.30;;;17.30;99.90;;;;;;5012511;28;20551;-85
2021/08/11 05:19:51;;;;;;;2.10;0.43;;;17.40;99.90;;;;;;5028020;28;20186;-83
2021/08/11 05:22:18;;;;;;;0.20;0.20;;;17.40;99.90;;;;;;5011867;28;20206;-85
2021/08/11 05:24:44;;;;;;;0.30;0.30;;;17.50;99.90;;;;;;5015418;28;20182;-82
2021/08/11 05:27:10;;;;;;;0.20;0.20;;;17.60;99.90;;;;;;5018195;28;20550;-82
2021/08/11 05:29:35;;;;;;;0.40;0.40;;;17.70;99.90;;;;;;5017903;28;20662;-82
2021/08/11 05:32:01;;;;;;;0.20;0.20;;;17.60;99.90;;;;;;5018365;28;20213;-81
2021/08/11 05:34:26;;;;;;;0.30;0.30;;;17.70;99.90;;;;;;5031787;28;20680;-82
2021/08/11 05:36:52;;;;;;;2.77;0.23;;;17.60;99.90;;;;;;5014609;28;20235;-82
2021/08/11 05:39:17;;;;;;;0.33;0.33;;;17.50;99.90;;;;;;5016372;28;20655;-82
2021/08/11 05:41:43;;;;;;;0.53;0.53;;;17.70;99.90;;;;;;5027669;28;20235;-82
2021/08/11 05:44:09;;;;;;;0.20;0.20;;;17.60;99.90;;;;;;5033589;28;20673;-80
2021/08/11 05:46:35;;;;;;;0.63;0.50;;;17.60;99.90;;;;;;5014278;28;20179;-82
2021/08/11 05:49:04;;;;;;;0.47;0.43;;;17.60;99.90;;;;;;5013128;28;20205;-82
2021/08/11 05:51:33;;;;;;;0.20;0.20;;;17.60;99.90;;;;;;5012726;28;20203;-83
2021/08/11 05:54:03;;;;;;;1.60;0.40;;;17.50;99.90;;;;;;5014270;28;20221;-83
2021/08/11 05:56:29;;;;;;;0.27;0.23;;;17.70;99.90;;;;;;5013548;28;20276;-84
2021/08/11 05:58:55;;;;;;;0.33;0.33;;;17.90;99.90;;;;;;5011944;28;20214;-82
2021/08/11 06:01:22;;;;;;;0.20;0.20;;;18.00;99.90;;;;;;5014004;28;20218;-83
2021/08/11 06:03:47;;;;;;;0.50;0.50;;;18.00;99.90;;;;;;5012865;28;20549;-83
2021/08/11 06:06:14;;;;;;;0.20;0.20;;;18.10;99.90;;;;;;5010720;28;20183;-84
2021/08/11 06:08:40;;;;;;;0.53;0.53;;;18.40;99.90;;;;;;5000470;28;20187;-83
2021/08/11 06:11:05;;;;;;;0.13;0.13;;;18.50;99.90;;;;;;5008515;28;20789;-83
2021/08/11 06:13:31;;;;;;;0.47;0.23;;;18.70;99.90;;;;;;5031693;28;20261;-83
2021/08/11 06:15:56;;;;;;;0.83;0.73;;;19.00;99.90;;;;;;5029026;28;20199;-83
2021/08/11 06:18:22;;;;;;;0.20;0.20;;;19.20;99.90;;;;;;5011417;28;20203;-82
2021/08/11 06:20:52;;;;;;;0.40;0.40;;;19.20;99.90;;;;;;5025871;28;20210;-82
2021/08/11 06:23:18;;;;;;;0.33;0.30;;;19.50;99.90;;;;;;5006917;28;20570;-83
2021/08/11 06:25:43;;;;;;;0.40;0.40;;;19.60;99.90;;;;;;5013013;28;20186;-83
2021/08/11 06:28:09;;;;;;;0.37;0.37;;;19.90;99.90;;;;;;5017732;28;20185;-83
2021/08/11 06:30:34;;;;;;;0.80;0.40;;;19.70;99.90;;;;;;5008988;28;20203;-82
2021/08/11 06:33:00;;;;;;;1.03;0.43;;;19.90;99.90;;;;;;5013124;28;20332;-82
2021/08/11 06:35:25;;;;;;;1.43;0.50;;;20.20;99.90;;;;;;5011891;28;20198;-83
2021/08/11 06:37:51;;;;;;;0.73;0.60;;;20.40;99.90;;;;;;5027849;28;20193;-82
2021/08/11 06:40:19;;;;;;;0.30;0.30;;;20.60;99.90;;;;;;5011570;28;20233;-83
2021/08/11 06:42:46;;;;;;;0.33;0.33;;;20.70;99.90;;;;;;5014340;28;20213;-83
2021/08/11 06:45:13;;;;;;;0.50;0.50;;;20.80;99.90;;;;;;5009276;28;20560;-82
2021/08/11 06:47:39;;;;;;;0.83;0.57;;;21.00;99.90;;;;;;5014104;28;20175;-82
2021/08/11 06:50:06;;;;;;;0.23;0.23;;;21.10;99.90;;;;;;5029721;28;20198;-85
2021/08/11 06:52:35;;;;;;;1.57;0.70;;;21.30;99.90;;;;;;5016525;28;20202;-85
2021/08/11 06:55:07;;;;;;;0.70;0.70;;;21.60;99.90;;;;;;5024421;28;20189;-83
2021/08/11 06:57:33;;;;;;;1.30;0.60;;;21.80;99.90;;;;;;5005597;28;20194;-82
2021/08/11 06:59:58;;;;;;;0.50;0.50;;;21.90;99.90;;;;;;5010596;28;20208;-82
2021/08/11 07:02:24;;;;;;;5.07;1.37;;;22.00;99.90;;;;;;5033900;28;20223;-83
2021/08/11 07:04:50;;;;;;;3.80;1.83;;;22.00;99.90;;;;;;5032782;28;20248;-83
2021/08/11 07:07:16;;;;;;;0.50;0.50;;;22.00;99.90;;;;;;5016400;28;20186;-82
2021/08/11 07:09:41;;;;;;;0.23;0.23;;;22.10;99.90;;;;;;5032693;28;20178;-82
2021/08/11 07:12:07;;;;;;;0.73;0.73;;;22.10;99.90;;;;;;5024550;28;20211;-82
2021/08/11 07:14:33;;;;;;;0.70;0.70;;;22.20;99.90;;;;;;5028217;28;20194;-82
2021/08/11 07:16:58;;;;;;;0.57;0.57;;;22.20;99.90;;;;;;5023542;28;20186;-83
2021/08/11 07:19:24;;;;;;;0.43;0.43;;;22.30;99.90;;;;;;5008521;28;20815;-85
2021/08/11 07:21:49;;;;;;;3.33;0.93;;;22.50;99.90;;;;;;5013495;28;20214;-85
2021/08/11 07:24:15;;;;;;;0.23;0.23;;;22.70;99.90;;;;;;5029041;28;20241;-80
2021/08/11 07:26:41;;;;;;;0.70;0.63;;;22.90;99.90;;;;;;5011582;28;20289;-82
2021/08/11 07:29:06;;;;;;;0.70;0.70;;;23.10;99.90;;;;;;5034706;28;20216;-82
2021/08/11 07:31:32;;;;;;;0.57;0.57;;;23.10;99.90;;;;;;5019958;28;20210;-82
2021/08/11 07:33:57;;;;;;;1.77;0.87;;;23.20;99.90;;;;;;5038679;28;20209;-81
2021/08/11 07:36:23;;;;;;;0.60;0.60;;;23.30;99.90;;;;;;5021359;28;20194;-80
2021/08/11 07:38:49;;;;;;;1.20;0.93;;;23.30;99.90;;;;;;5020137;28;20197;-82
2021/08/11 07:41:15;;;;;;;0.83;0.67;;;23.30;99.90;;;;;;5025482;28;20229;-81
2021/08/11 07:43:41;;;;;;;1.13;0.70;;;23.30;99.90;;;;;;5019311;28;20268;-81
2021/08/11 07:46:06;;;;;;;2.03;1.80;;;23.30;99.90;;;;;;5020200;28;20634;-81
2021/08/11 07:48:32;;;;;;;0.40;0.40;;;23.30;99.90;;;;;;5036837;28;20178;-81
2021/08/11 07:50:58;;;;;;;0.93;0.60;;;23.50;99.90;;;;;;5019060;28;20221;-82
2021/08/11 07:53:23;;;;;;;0.73;0.73;;;23.60;99.90;;;;;;5019955;28;20190;-81
2021/08/11 07:55:49;;;;;;;0.37;0.33;;;23.70;99.90;;;;;;5020389;28;20194;-82
2021/08/11 07:58:14;;;;;;;0.87;0.50;;;24.00;99.90;;;;;;5040137;28;20182;-82
2021/08/11 08:00:40;;;;;;;1.07;0.97;;;24.10;99.90;;;;;;5019491;28;20544;-82
2021/08/11 08:03:06;;;;;;;0.57;0.30;;;24.20;99.90;;;;;;5038433;28;20194;-80
2021/08/11 08:05:31;;;;;;;0.50;0.50;;;24.30;99.90;;;;;;5041665;28;20192;-82
2021/08/11 08:07:57;;;;;;;0.87;0.83;;;24.40;99.90;;;;;;5042221;28;20183;-82
2021/08/11 08:10:22;;;;;;;0.37;0.37;;;24.30;99.90;;;;;;5037056;28;20199;-82
2021/08/11 08:12:48;;;;;;;1.57;0.30;;;24.30;99.90;;;;;;5036666;28;20206;-80
2021/08/11 08:15:15;;;;;;;0.30;0.30;;;23.90;99.90;;;;;;5037714;28;20539;-81
2021/08/11 08:17:41;;;;;;;0.60;0.60;;;24.00;99.90;;;;;;5019234;28;20186;-81
2021/08/11 08:20:07;;;;;;;0.73;0.67;;;24.20;99.90;;;;;;5018522;28;20281;-81
2021/08/11 08:22:33;;;;;;;0.20;0.20;;;24.40;99.90;;;;;;5018618;28;20286;-81
2021/08/11 08:24:59;;;;;;;0.30;0.30;;;24.40;99.90;;;;;;5035824;28;20667;-81
2021/08/11 08:27:25;;;;;;;0.53;0.43;;;24.60;99.90;;;;;;5017622;28;20528;-80
2021/08/11 08:29:51;;;;;;;0.20;0.20;;;24.80;99.90;;;;;;5036310;28;20182;-81
2021/08/11 08:32:17;;;;;;;0.47;0.43;;;24.70;99.90;;;;;;5034737;28;20737;-82
2021/08/11 08:34:43;;;;;;;0.40;0.40;;;24.80;99.90;;;;;;5036832;28;20179;-81
2021/08/11 08:37:09;;;;;;;0.57;0.53;;;24.60;99.90;;;;;;5019276;28;20245;-81
2021/08/11 08:39:34;;;;;;;0.40;0.40;;;24.90;99.90;;;;;;5013737;28;20190;-81
2021/08/11 08:42:00;;;;;;;0.37;0.37;;;24.90;99.90;;;;;;5028298;28;20595;-82
2021/08/11 08:44:27;;;;;;;0.50;0.50;;;25.10;99.90;;;;;;5018391;28;20651;-82
2021/08/11 08:46:55;;;;;;;0.30;0.30;;;25.40;99.90;;;;;;5018796;28;20236;-82
2021/08/11 08:49:21;;;;;;;0.27;0.27;;;25.60;99.90;;;;;;5016604;28;20186;-82
2021/08/11 08:51:48;;;;;;;1.20;0.60;;;25.70;99.90;;;;;;5024861;28;20272;-82
2021/08/11 08:54:21;;;;;;;0.47;0.47;;;25.60;99.90;;;;;;5032321;28;20190;-83
2021/08/11 08:56:47;;;;;;;0.53;0.30;;;25.80;99.90;;;;;;5032020;28;20248;-83
2021/08/11 08:59:13;;;;;;;0.67;0.37;;;25.90;99.90;;;;;;5031946;28;20689;-82
2021/08/11 09:01:39;;;;;;;0.30;0.30;;;25.90;99.90;;;;;;5013610;28;20236;-82
2021/08/11 09:04:04;;;;;;;0.80;0.80;;;26.00;99.90;;;;;;5006634;28;20182;-83
2021/08/11 09:06:35;;;;;;;0.30;0.30;;;25.80;99.90;;;;;;5028768;28;20187;-83
2021/08/11 09:09:05;;;;;;;0.27;0.27;;;25.90;99.90;;;;;;5031436;28;20698;-83
2021/08/11 09:11:37;;;;;;;0.20;0.20;;;26.10;99.90;;;;;;5032094;28;20217;-82
2021/08/11 09:14:25;;;;;;;1.00;0.73;;;26.30;99.90;;;;;;5014043;28;20194;-84
2021/08/11 09:16:53;;;;;;;0.30;0.30;;;26.30;99.90;;;;;;5014580;28;20282;-83
2021/08/11 09:19:20;;;;;;;0.87;0.57;;;26.30;99.90;;;;;;5029892;28;20178;-83
2021/08/11 09:22:04;;;;;;;0.40;0.40;;;26.50;99.90;;;;;;5031100;28;20287;-82
2021/08/11 09:24:36;;;;;;;0.47;0.47;;;26.70;99.90;;;;;;5013104;28;20190;-83
2021/08/11 09:27:20;;;;;;;2.17;0.80;;;26.70;99.90;;;;;;5029416;28;20277;-83
2021/08/11 09:30:07;;;;;;;0.80;0.80;;;26.60;99.90;;;;;;5025379;28;20654;-83
2021/08/11 09:32:46;;;;;;;0.53;0.40;;;26.70;99.90;;;;;;5014542;28;20213;-83
2021/08/11 09:35:12;;;;;;;0.50;0.50;;;26.80;99.90;;;;;;5012726;28;20741;-84
2021/08/11 09:37:39;;;;;;;0.40;0.40;;;26.80;99.90;;;;;;5011053;28;20266;-85
2021/08/11 09:40:16;;;;;;;0.33;0.30;;;27.00;99.90;;;;;;5006062;28;20198;-82
2021/08/11 09:42:43;;;;;;;0.20;0.20;;;26.70;99.90;;;;;;5027351;28;20213;-82
2021/08/11 09:45:11;;;;;;;0.40;0.40;;;27.00;99.90;;;;;;5030338;28;20189;-83
2021/08/11 09:47:38;;;;;;;0.37;0.37;;;26.90;99.90;;;;;;5027285;28;20190;-81
2021/08/11 09:50:05;;;;;;;0.67;0.30;;;27.00;99.90;;;;;;5035773;28;20189;-83
2021/08/11 09:52:51;;;;;;;1.33;0.60;;;27.10;99.90;;;;;;5013691;28;20208;-83
2021/08/11 09:55:17;;;;;;;0.40;0.30;;;27.10;99.90;;;;;;5014201;28;20251;-83
2021/08/11 09:57:44;;;;;;;0.50;0.40;;;27.20;99.90;;;;;;5032173;28;20175;-83
2021/08/11 10:00:13;;;;;;;0.40;0.40;;;27.40;99.90;;;;;;5014604;28;20187;-83
2021/08/11 10:02:40;;;;;;;0.47;0.47;;;27.60;99.90;;;;;;5011311;28;20246;-82
2021/08/11 10:05:05;;;;;;;0.20;0.20;;;27.70;99.90;;;;;;5031500;28;20179;-83
2021/08/11 10:07:31;;;;;;;0.40;0.40;;;27.90;99.90;;;;;;5014154;28;20240;-83
2021/08/11 10:10:03;;;;;;;0.83;0.60;;;27.60;99.90;;;;;;5031981;28;20206;-81
2021/08/11 10:12:31;;;;;;;0.17;0.17;;;27.80;99.90;;;;;;5014315;28;20210;-84
2021/08/11 10:14:58;;;;;;;0.40;0.40;;;28.00;99.90;;;;;;5013648;28;20192;-83
2021/08/11 10:17:28;;;;;;;0.30;0.30;;;28.20;99.90;;;;;;5014455;28;20190;-82
2021/08/11 10:19:53;;;;;;;0.70;0.70;;;28.50;99.90;;;;;;5013786;28;20190;-83
2021/08/11 10:22:21;;;;;;;1.30;0.83;;;28.10;99.90;;;;;;5025550;28;20215;-82
2021/08/11 10:24:50;;;;;;;0.20;0.20;;;28.00;99.90;;;;;;5013157;28;20214;-81
2021/08/11 10:27:17;;;;;;;0.33;0.33;;;28.00;99.90;;;;;;5031332;28;20179;-83
2021/08/11 10:29:44;;;;;;;0.43;0.43;;;28.30;99.90;;;;;;5013898;28;20662;-83
2021/08/11 10:32:10;;;;;;;0.67;0.63;;;28.30;99.90;;;;;;5013844;28;20213;-82
2021/08/11 10:34:37;;;;;;;0.40;0.40;;;28.40;99.90;;;;;;5013756;28;20208;-83
2021/08/11 10:37:03;;;;;;;0.90;0.77;;;28.30;99.90;;;;;;5013653;28;20197;-80
2021/08/11 10:39:30;;;;;;;0.40;0.40;;;28.40;99.90;;;;;;5010967;28;20734;-83
2021/08/11 10:42:00;;;;;;;0.27;0.27;;;28.40;99.90;;;;;;5024521;28;20210;-83
2021/08/11 10:44:26;;;;;;;0.40;0.40;;;28.20;99.90;;;;;;5019027;28;20190;-83
2021/08/11 10:47:00;;;;;;;0.37;0.37;;;28.50;99.90;;;;;;5013832;28;20566;-82
2021/08/11 10:49:29;;;;;;;0.30;0.30;;;28.70;99.90;;;;;;5031303;28;20189;-83
2021/08/11 10:52:00;;;;;;;0.57;0.57;;;28.90;99.90;;;;;;5026848;28;20244;-83
2021/08/11 10:54:26;;;;;;;0.30;0.30;;;29.00;99.90;;;;;;5012787;28;20194;-82
2021/08/11 10:56:55;;;;;;;0.60;0.60;;;29.00;99.90;;;;;;5031421;28;20187;-83
2021/08/11 10:59:24;;;;;;;0.40;0.40;;;28.70;99.90;;;;;;5013365;28;20186;-83
2021/08/11 11:01:57;;;;;;;0.90;0.40;;;28.80;99.90;;;;;;5030996;28;20762;-83
2021/08/11 11:04:50;;;;;;;0.70;0.70;;;29.00;99.90;;;;;;5026300;28;20214;-81
2021/08/11 11:07:18;;;;;;;0.20;0.20;;;29.20;99.90;;;;;;5033770;28;20186;-83
2021/08/11 11:09:45;;;;;;;0.75;0.55;;;29.60;99.90;;;;;;5034819;28;20174;-83
2021/08/11 11:12:17;;;;;;;0.30;0.30;;;29.80;99.90;;;;;;5034483;28;20244;-83
2021/08/11 11:14:45;;;;;;;0.30;0.30;;;29.90;99.90;;;;;;5017562;28;20189;-83
2021/08/11 11:17:11;;;;;;;0.40;0.40;;;30.10;99.90;;;;;;5017618;28;20277;-83
2021/08/11 11:20:16;;;;;;;0.80;0.70;;;30.00;99.90;;;;;;5034917;28;20235;-83
2021/08/11 11:22:48;;;;;;;0.47;0.47;;;29.70;99.90;;;;;;5003577;28;20240;-83
2021/08/11 11:25:14;;;;;;;0.40;0.40;;;29.60;99.90;;;;;;5017422;28;20178;-83
2021/08/11 11:28:02;;;;;;;0.40;0.40;;;29.70;99.90;;;;;;5017135;28;20190;-82
2021/08/11 11:30:27;;;;;;;0.20;0.20;;;29.80;99.90;;;;;;5033835;28;20186;-83
2021/08/11 11:32:54;;;;;;;0.40;0.40;;;30.10;99.90;;;;;;5030090;28;20209;-83
2021/08/11 11:35:24;;;;;;;1.40;1.30;;;30.10;99.90;;;;;;5017108;28;20190;-83
2021/08/11 11:38:05;;;;;;;0.30;0.30;;;30.30;99.90;;;;;;5034908;28;20526;-84
2021/08/11 11:40:30;;;;;;;0.20;0.20;;;30.40;99.90;;;;;;5029160;28;20262;-83
2021/08/11 11:43:29;;;;;;;0.43;0.38;;;30.60;99.90;;;;;;5033386;28;20301;-83
2021/08/11 11:45:55;;;;;;;2.00;0.50;;;30.90;99.90;;;;;;5015609;28;20182;-83
2021/08/11 11:48:21;;;;;;;0.52;0.30;;;30.80;99.90;;;;;;5033112;28;20209;-83
2021/08/11 11:51:02;;;;;;;0.68;0.68;;;31.00;99.90;;;;;;5033690;28;20206;-83
2021/08/11 11:53:29;;;;;;;2.78;0.50;;;30.70;99.90;;;;;;5015702;28;20186;-83
2021/08/11 11:55:56;;;;;;;0.57;0.57;;;30.60;99.90;;;;;;5016025;28;20190;-83
2021/08/11 11:58:25;;;;;;;0.43;0.40;;;30.30;99.90;;;;;;5034181;28;20336;-83
2021/08/11 12:01:04;;;;;;;0.47;0.47;;;30.30;99.90;;;;;;5016304;28;20217;-83
2021/08/11 12:03:36;;;;;;;0.47;0.38;;;30.40;99.90;;;;;;5010183;28;20197;-84
2021/08/11 12:06:01;;;;;;;0.20;0.20;;;29.30;99.90;;;;;;5033521;28;20183;-82
2021/08/11 12:08:27;;;;;;;0.20;0.20;;;30.00;99.90;;;;;;5032964;28;20186;-82
2021/08/11 12:11:12;;;;;;;0.57;0.57;;;30.30;99.90;;;;;;5015666;28;20214;-83
2021/08/11 12:13:50;;;;;;;0.40;0.40;;;30.00;99.90;;;;;;5015949;28;20190;-83
2021/08/11 12:16:19;;;;;;;0.50;0.50;;;29.60;99.90;;;;;;5013850;28;20210;-83
2021/08/11 12:18:47;;;;;;;0.70;0.57;;;29.80;99.90;;;;;;5032109;28;20181;-83
2021/08/11 12:21:15;;;;;;;0.52;0.50;;;30.00;99.90;;;;;;5031902;28;20206;-83
2021/08/11 12:23:42;;;;;;;1.15;0.50;;;30.10;99.90;;;;;;5032601;28;20182;-84
2021/08/11 12:26:13;;;;;;;0.65;0.52;;;30.20;99.90;;;;;;5014651;28;20212;-81
2021/08/11 12:28:45;;;;;;;0.43;0.30;;;30.30;99.90;;;;;;5016425;28;20177;-82
2021/08/11 12:31:23;;;;;;;0.65;0.35;;;30.20;99.90;;;;;;5029991;28;20221;-83
2021/08/11 12:33:52;;;;;;;0.63;0.60;;;29.80;99.90;;;;;;5007524;28;20210;-84
2021/08/11 12:36:21;;;;;;;0.43;0.43;;;29.80;99.90;;;;;;5013306;28;20182;-84
2021/08/11 12:39:14;;;;;;;0.80;0.65;;;30.20;99.90;;;;;;5030769;28;20191;-85
2021/08/11 12:41:41;;;;;;;0.50;0.50;;;30.10;99.90;;;;;;5028830;28;20213;-83
2021/08/11 12:44:14;;;;;;;0.47;0.47;;;30.10;99.90;;;;;;5014633;28;20179;-84
2021/08/11 12:46:43;;;;;;;1.65;0.60;;;30.10;99.90;;;;;;5030466;28;20210;-84
2021/08/11 12:49:19;;;;;;;0.45;0.45;;;29.70;99.90;;;;;;5030019;28;20199;-83
2021/08/11 12:51:45;;;;;;;0.57;0.57;;;30.10;99.90;;;;;;5011993;28;20576;-82
2021/08/11 12:54:11;;;;;;;3.40;0.43;;;30.20;99.90;;;;;;5021965;28;20265;-82
2021/08/11 12:56:57;;;;;;;1.40;0.85;;;30.20;99.90;;;;;;5015242;28;20289;-84